sensor_id;sensor_type;location;lat;lon;timestamp;P1;durP1;ratioP1;P2;durP2;ratioP2
10442;SDS011;5269;51.146;16.986;2022-10-16T06:55:21;7.68;;;6.00;;
10442;SDS011;5269;51.146;16.986;2022-10-16T06:57:48;6.72;;;6.13;;
10442;SDS011;5269;51.146;16.986;2022-10-16T07:00:15;6.82;;;6.05;;
10442;SDS011;5269;51.146;16.986;2022-10-16T07:02:42;7.13;;;5.82;;
10442;SDS011;5269;51.146;16.986;2022-10-16T07:08:55;6.05;;;5.45;;
10442;SDS011;5269;51.146;16.986;2022-10-16T07:14:50;6.75;;;5.47;;
10442;SDS011;5269;51.146;16.986;2022-10-16T07:17:19;7.80;;;5.60;;
10442;SDS011;5269;51.146;16.986;2022-10-16T07:19:46;5.78;;;5.05;;
10442;SDS011;5269;51.146;16.986;2022-10-16T07:22:13;7.82;;;5.22;;
10442;SDS011;5269;51.146;16.986;2022-10-16T07:24:39;6.15;;;5.45;;
10442;SDS011;5269;51.146;16.986;2022-10-16T07:27:07;5.43;;;4.93;;
10442;SDS011;5269;51.146;16.986;2022-10-16T07:29:33;6.28;;;4.63;;
10442;SDS011;5269;51.146;16.986;2022-10-16T07:32:02;5.97;;;4.60;;
10442;SDS011;5269;51.146;16.986;2022-10-16T07:34:29;5.13;;;4.72;;
10442;SDS011;5269;51.146;16.986;2022-10-16T07:36:56;5.03;;;4.63;;
10442;SDS011;5269;51.146;16.986;2022-10-16T07:39:23;5.07;;;4.57;;
10442;SDS011;5269;51.146;16.986;2022-10-16T07:41:50;5.05;;;4.55;;
10442;SDS011;5269;51.146;16.986;2022-10-16T07:44:16;6.30;;;4.70;;
10442;SDS011;5269;51.146;16.986;2022-10-16T07:46:43;4.82;;;4.43;;
10442;SDS011;5269;51.146;16.986;2022-10-16T07:49:12;5.53;;;4.65;;
10442;SDS011;5269;51.146;16.986;2022-10-16T07:51:39;4.78;;;4.28;;
10442;SDS011;5269;51.146;16.986;2022-10-16T07:54:05;4.55;;;4.15;;
10442;SDS011;5269;51.146;16.986;2022-10-16T07:56:34;4.80;;;4.30;;
10442;SDS011;5269;51.146;16.986;2022-10-16T07:59:01;5.00;;;4.50;;
10442;SDS011;5269;51.146;16.986;2022-10-16T08:01:27;4.40;;;4.00;;
10442;SDS011;5269;51.146;16.986;2022-10-16T08:03:54;4.38;;;3.97;;
10442;SDS011;5269;51.146;16.986;2022-10-16T08:06:23;4.57;;;3.95;;
10442;SDS011;5269;51.146;16.986;2022-10-16T08:08:51;4.22;;;3.80;;
10442;SDS011;5269;51.146;16.986;2022-10-16T08:11:18;4.43;;;4.03;;
10442;SDS011;5269;51.146;16.986;2022-10-16T08:13:45;4.10;;;3.70;;
10442;SDS011;5269;51.146;16.986;2022-10-16T08:16:12;4.13;;;3.72;;
10442;SDS011;5269;51.146;16.986;2022-10-16T08:18:39;4.68;;;4.20;;
10442;SDS011;5269;51.146;16.986;2022-10-16T08:21:08;3.70;;;3.40;;
10442;SDS011;5269;51.146;16.986;2022-10-16T08:23:41;6.28;;;3.63;;
10442;SDS011;5269;51.146;16.986;2022-10-16T08:26:09;3.78;;;3.38;;
10442;SDS011;5269;51.146;16.986;2022-10-16T08:28:36;3.90;;;3.50;;
10442;SDS011;5269;51.146;16.986;2022-10-16T08:31:07;3.78;;;3.38;;
10442;SDS011;5269;51.146;16.986;2022-10-16T08:33:35;3.60;;;3.30;;
10442;SDS011;5269;51.146;16.986;2022-10-16T08:36:02;6.10;;;3.47;;
10442;SDS011;5269;51.146;16.986;2022-10-16T08:38:30;3.40;;;3.10;;
10442;SDS011;5269;51.146;16.986;2022-10-16T08:41:01;3.75;;;2.88;;
10442;SDS011;5269;51.146;16.986;2022-10-16T08:43:50;4.85;;;3.30;;
10442;SDS011;5269;51.146;16.986;2022-10-16T08:46:32;3.38;;;3.08;;
10442;SDS011;5269;51.146;16.986;2022-10-16T08:49:05;3.40;;;3.10;;
10442;SDS011;5269;51.146;16.986;2022-10-16T08:51:37;3.42;;;3.13;;
10442;SDS011;5269;51.146;16.986;2022-10-16T08:57:27;2.92;;;2.72;;
10442;SDS011;5269;51.146;16.986;2022-10-16T08:59:57;5.63;;;3.10;;
10442;SDS011;5269;51.146;16.986;2022-10-16T09:02:29;3.40;;;3.10;;
10442;SDS011;5269;51.146;16.986;2022-10-16T09:07:57;3.58;;;3.28;;
10442;SDS011;5269;51.146;16.986;2022-10-16T09:10:37;2.92;;;2.72;;
10442;SDS011;5269;51.146;16.986;2022-10-16T09:13:16;3.75;;;3.10;;
10442;SDS011;5269;51.146;16.986;2022-10-16T09:15:48;12.95;;;7.25;;
10442;SDS011;5269;51.146;16.986;2022-10-16T09:18:22;12.70;;;6.75;;
10442;SDS011;5269;51.146;16.986;2022-10-16T09:20:56;5.75;;;3.92;;
10442;SDS011;5269;51.146;16.986;2022-10-16T09:23:28;3.53;;;2.90;;
10442;SDS011;5269;51.146;16.986;2022-10-16T09:25:56;3.58;;;2.75;;
10442;SDS011;5269;51.146;16.986;2022-10-16T09:28:26;5.45;;;2.65;;
10442;SDS011;5269;51.146;16.986;2022-10-16T09:30:52;3.42;;;3.03;;
10442;SDS011;5269;51.146;16.986;2022-10-16T09:33:20;3.55;;;2.83;;
10442;SDS011;5269;51.146;16.986;2022-10-16T09:35:50;3.63;;;2.90;;
10442;SDS011;5269;51.146;16.986;2022-10-16T09:38:28;2.70;;;2.50;;
10442;SDS011;5269;51.146;16.986;2022-10-16T09:40:58;3.67;;;2.85;;
10442;SDS011;5269;51.146;16.986;2022-10-16T09:46:05;2.90;;;2.70;;
10442;SDS011;5269;51.146;16.986;2022-10-16T09:48:43;3.65;;;2.80;;
10442;SDS011;5269;51.146;16.986;2022-10-16T09:51:18;3.60;;;2.78;;
10442;SDS011;5269;51.146;16.986;2022-10-16T09:53:46;3.10;;;2.80;;
10442;SDS011;5269;51.146;16.986;2022-10-16T09:59:51;2.90;;;2.70;;
10442;SDS011;5269;51.146;16.986;2022-10-16T10:05:42;3.92;;;3.00;;
10442;SDS011;5269;51.146;16.986;2022-10-16T10:08:16;3.10;;;2.85;;
10442;SDS011;5269;51.146;16.986;2022-10-16T10:10:49;3.05;;;2.85;;
10442;SDS011;5269;51.146;16.986;2022-10-16T10:13:18;3.20;;;3.00;;
10442;SDS011;5269;51.146;16.986;2022-10-16T10:15:50;5.35;;;3.20;;
10442;SDS011;5269;51.146;16.986;2022-10-16T10:18:34;3.22;;;2.92;;
10442;SDS011;5269;51.146;16.986;2022-10-16T10:21:02;3.08;;;2.88;;
10442;SDS011;5269;51.146;16.986;2022-10-16T10:23:33;3.25;;;2.92;;
10442;SDS011;5269;51.146;16.986;2022-10-16T10:26:02;4.13;;;2.90;;
10442;SDS011;5269;51.146;16.986;2022-10-16T10:28:56;4.97;;;2.83;;
10442;SDS011;5269;51.146;16.986;2022-10-16T10:31:32;4.20;;;2.75;;
10442;SDS011;5269;51.146;16.986;2022-10-16T10:34:08;3.33;;;3.03;;
10442;SDS011;5269;51.146;16.986;2022-10-16T10:36:48;2.80;;;2.60;;
10442;SDS011;5269;51.146;16.986;2022-10-16T10:39:25;3.40;;;3.10;;
10442;SDS011;5269;51.146;16.986;2022-10-16T10:44:53;2.97;;;2.63;;
10442;SDS011;5269;51.146;16.986;2022-10-16T10:47:51;2.75;;;2.55;;
10442;SDS011;5269;51.146;16.986;2022-10-16T10:50:30;2.53;;;2.33;;
10442;SDS011;5269;51.146;16.986;2022-10-16T10:53:09;2.70;;;2.47;;
10442;SDS011;5269;51.146;16.986;2022-10-16T10:55:46;3.15;;;2.40;;
10442;SDS011;5269;51.146;16.986;2022-10-16T10:58:22;2.85;;;2.65;;
10442;SDS011;5269;51.146;16.986;2022-10-16T11:01:17;4.43;;;2.70;;
10442;SDS011;5269;51.146;16.986;2022-10-16T11:04:04;3.13;;;2.60;;
10442;SDS011;5269;51.146;16.986;2022-10-16T11:09:56;2.25;;;2.00;;
10442;SDS011;5269;51.146;16.986;2022-10-16T11:12:46;2.70;;;2.50;;
10442;SDS011;5269;51.146;16.986;2022-10-16T11:15:21;2.95;;;2.75;;
10442;SDS011;5269;51.146;16.986;2022-10-16T11:18:05;2.75;;;2.55;;
10442;SDS011;5269;51.146;16.986;2022-10-16T11:20:56;2.75;;;2.55;;
10442;SDS011;5269;51.146;16.986;2022-10-16T11:23:39;2.78;;;2.50;;
10442;SDS011;5269;51.146;16.986;2022-10-16T11:26:24;2.78;;;2.58;;
10442;SDS011;5269;51.146;16.986;2022-10-16T11:29:15;2.70;;;2.55;;
10442;SDS011;5269;51.146;16.986;2022-10-16T11:31:52;2.88;;;2.60;;
10442;SDS011;5269;51.146;16.986;2022-10-16T11:34:22;2.78;;;2.58;;
10442;SDS011;5269;51.146;16.986;2022-10-16T11:37:01;2.83;;;2.28;;
10442;SDS011;5269;51.146;16.986;2022-10-16T11:39:32;2.92;;;2.72;;
10442;SDS011;5269;51.146;16.986;2022-10-16T11:42:07;3.00;;;2.35;;
10442;SDS011;5269;51.146;16.986;2022-10-16T11:44:50;2.80;;;2.42;;
10442;SDS011;5269;51.146;16.986;2022-10-16T11:47:30;2.80;;;2.58;;
10442;SDS011;5269;51.146;16.986;2022-10-16T11:50:02;4.22;;;2.78;;
10442;SDS011;5269;51.146;16.986;2022-10-16T11:52:39;4.57;;;2.85;;
10442;SDS011;5269;51.146;16.986;2022-10-16T11:55:18;3.83;;;2.85;;
10442;SDS011;5269;51.146;16.986;2022-10-16T11:57:57;2.95;;;2.75;;
10442;SDS011;5269;51.146;16.986;2022-10-16T12:00:34;3.28;;;2.90;;
10442;SDS011;5269;51.146;16.986;2022-10-16T12:03:11;3.03;;;2.83;;
10442;SDS011;5269;51.146;16.986;2022-10-16T12:05:56;3.17;;;2.85;;
10442;SDS011;5269;51.146;16.986;2022-10-16T12:08:38;2.88;;;2.67;;
10442;SDS011;5269;51.146;16.986;2022-10-16T12:11:07;2.95;;;2.75;;
10442;SDS011;5269;51.146;16.986;2022-10-16T12:13:40;2.95;;;2.75;;
10442;SDS011;5269;51.146;16.986;2022-10-16T12:16:39;3.15;;;2.85;;
10442;SDS011;5269;51.146;16.986;2022-10-16T12:19:21;2.75;;;2.60;;
10442;SDS011;5269;51.146;16.986;2022-10-16T12:21:49;2.97;;;2.78;;
10442;SDS011;5269;51.146;16.986;2022-10-16T12:24:21;3.15;;;2.92;;
10442;SDS011;5269;51.146;16.986;2022-10-16T12:26:56;3.13;;;2.90;;
10442;SDS011;5269;51.146;16.986;2022-10-16T12:29:27;3.40;;;3.10;;
10442;SDS011;5269;51.146;16.986;2022-10-16T12:31:59;3.13;;;2.92;;
10442;SDS011;5269;51.146;16.986;2022-10-16T12:34:27;3.03;;;2.83;;
10442;SDS011;5269;51.146;16.986;2022-10-16T12:37:06;3.20;;;2.90;;
10442;SDS011;5269;51.146;16.986;2022-10-16T12:39:36;3.53;;;3.28;;
10442;SDS011;5269;51.146;16.986;2022-10-16T12:42:04;3.58;;;3.28;;
10442;SDS011;5269;51.146;16.986;2022-10-16T12:44:34;3.30;;;3.00;;
10442;SDS011;5269;51.146;16.986;2022-10-16T12:47:02;3.22;;;2.97;;
10442;SDS011;5269;51.146;16.986;2022-10-16T12:49:34;3.70;;;3.40;;
10442;SDS011;5269;51.146;16.986;2022-10-16T12:52:04;4.47;;;2.80;;
10442;SDS011;5269;51.146;16.986;2022-10-16T12:54:46;3.10;;;2.90;;
10442;SDS011;5269;51.146;16.986;2022-10-16T12:57:19;3.30;;;3.10;;
10442;SDS011;5269;51.146;16.986;2022-10-16T13:00:01;3.42;;;3.08;;
10442;SDS011;5269;51.146;16.986;2022-10-16T13:05:37;4.13;;;3.72;;
10442;SDS011;5269;51.146;16.986;2022-10-16T13:08:24;3.83;;;3.53;;
10442;SDS011;5269;51.146;16.986;2022-10-16T13:11:08;5.55;;;3.80;;
10442;SDS011;5269;51.146;16.986;2022-10-16T13:13:49;5.85;;;3.83;;
10442;SDS011;5269;51.146;16.986;2022-10-16T13:16:37;3.90;;;3.60;;
10442;SDS011;5269;51.146;16.986;2022-10-16T13:19:18;4.57;;;4.18;;
10442;SDS011;5269;51.146;16.986;2022-10-16T13:21:56;4.13;;;3.72;;
10442;SDS011;5269;51.146;16.986;2022-10-16T13:24:36;4.30;;;3.95;;
10442;SDS011;5269;51.146;16.986;2022-10-16T13:27:14;3.97;;;3.67;;
10442;SDS011;5269;51.146;16.986;2022-10-16T13:29:49;5.07;;;3.90;;
10442;SDS011;5269;51.146;16.986;2022-10-16T13:32:22;4.00;;;3.70;;
10442;SDS011;5269;51.146;16.986;2022-10-16T13:34:52;3.58;;;3.28;;
10442;SDS011;5269;51.146;16.986;2022-10-16T13:37:20;6.28;;;3.65;;
10442;SDS011;5269;51.146;16.986;2022-10-16T13:40:01;4.60;;;4.20;;
10442;SDS011;5269;51.146;16.986;2022-10-16T13:42:38;5.95;;;3.95;;
10442;SDS011;5269;51.146;16.986;2022-10-16T13:45:05;5.20;;;3.83;;
10442;SDS011;5269;51.146;16.986;2022-10-16T13:47:47;4.15;;;3.83;;
10442;SDS011;5269;51.146;16.986;2022-10-16T13:50:17;4.63;;;4.15;;
10442;SDS011;5269;51.146;16.986;2022-10-16T13:52:46;3.72;;;3.42;;
10442;SDS011;5269;51.146;16.986;2022-10-16T13:55:15;5.38;;;3.75;;
10442;SDS011;5269;51.146;16.986;2022-10-16T13:57:43;4.05;;;3.72;;
10442;SDS011;5269;51.146;16.986;2022-10-16T14:00:17;4.57;;;3.70;;
10442;SDS011;5269;51.146;16.986;2022-10-16T14:02:49;3.67;;;3.38;;
10442;SDS011;5269;51.146;16.986;2022-10-16T14:05:19;4.05;;;3.67;;
10442;SDS011;5269;51.146;16.986;2022-10-16T14:07:47;4.07;;;3.67;;
10442;SDS011;5269;51.146;16.986;2022-10-16T14:10:20;5.20;;;3.92;;
10442;SDS011;5269;51.146;16.986;2022-10-16T16:59:35;8.40;;;7.60;;
10442;SDS011;5269;51.146;16.986;2022-10-16T17:02:03;8.88;;;8.07;;
10442;SDS011;5269;51.146;16.986;2022-10-16T17:04:30;8.90;;;8.00;;
10442;SDS011;5269;51.146;16.986;2022-10-16T17:06:57;9.02;;;8.13;;
10442;SDS011;5269;51.146;16.986;2022-10-16T17:09:23;10.65;;;8.05;;
10442;SDS011;5269;51.146;16.986;2022-10-16T17:11:50;10.35;;;8.40;;
10442;SDS011;5269;51.146;16.986;2022-10-16T17:14:17;10.40;;;8.40;;
10442;SDS011;5269;51.146;16.986;2022-10-16T17:16:45;9.68;;;8.68;;
10442;SDS011;5269;51.146;16.986;2022-10-16T17:19:17;12.10;;;9.05;;
10442;SDS011;5269;51.146;16.986;2022-10-16T17:21:47;10.48;;;8.80;;
10442;SDS011;5269;51.146;16.986;2022-10-16T17:24:14;10.32;;;8.45;;
10442;SDS011;5269;51.146;16.986;2022-10-16T17:26:42;9.95;;;8.95;;
10442;SDS011;5269;51.146;16.986;2022-10-16T17:29:13;10.57;;;8.80;;
10442;SDS011;5269;51.146;16.986;2022-10-16T17:31:42;10.95;;;8.73;;
10442;SDS011;5269;51.146;16.986;2022-10-16T17:36:41;12.73;;;9.30;;
10442;SDS011;5269;51.146;16.986;2022-10-16T17:39:29;10.13;;;9.00;;
10442;SDS011;5269;51.146;16.986;2022-10-16T17:41:56;11.57;;;8.93;;
10442;SDS011;5269;51.146;16.986;2022-10-16T17:44:23;12.02;;;8.60;;
10442;SDS011;5269;51.146;16.986;2022-10-16T17:46:50;10.98;;;9.48;;
10442;SDS011;5269;51.146;16.986;2022-10-16T17:49:20;11.38;;;9.32;;
10442;SDS011;5269;51.146;16.986;2022-10-16T17:51:48;11.13;;;9.95;;
10442;SDS011;5269;51.146;16.986;2022-10-16T17:54:16;10.77;;;9.65;;
10442;SDS011;5269;51.146;16.986;2022-10-16T17:56:43;11.23;;;9.60;;
10442;SDS011;5269;51.146;16.986;2022-10-16T17:59:11;10.48;;;9.32;;
10442;SDS011;5269;51.146;16.986;2022-10-16T18:01:39;12.60;;;10.98;;
10442;SDS011;5269;51.146;16.986;2022-10-16T18:04:09;13.77;;;10.20;;
10442;SDS011;5269;51.146;16.986;2022-10-16T18:06:38;11.65;;;9.98;;
10442;SDS011;5269;51.146;16.986;2022-10-16T18:09:09;14.13;;;11.98;;
10442;SDS011;5269;51.146;16.986;2022-10-16T18:11:38;13.65;;;11.35;;
10442;SDS011;5269;51.146;16.986;2022-10-16T18:14:05;13.20;;;10.95;;
10442;SDS011;5269;51.146;16.986;2022-10-16T18:16:32;13.15;;;11.00;;
10442;SDS011;5269;51.146;16.986;2022-10-16T18:19:00;12.57;;;11.05;;
10442;SDS011;5269;51.146;16.986;2022-10-16T18:21:27;14.40;;;11.43;;
10442;SDS011;5269;51.146;16.986;2022-10-16T18:23:56;16.13;;;11.90;;
10442;SDS011;5269;51.146;16.986;2022-10-16T18:26:24;16.33;;;12.60;;
10442;SDS011;5269;51.146;16.986;2022-10-16T18:28:51;15.70;;;12.20;;
10442;SDS011;5269;51.146;16.986;2022-10-16T18:31:19;16.65;;;13.00;;
10442;SDS011;5269;51.146;16.986;2022-10-16T18:33:47;15.13;;;12.73;;
10442;SDS011;5269;51.146;16.986;2022-10-16T18:36:15;14.30;;;12.25;;
10442;SDS011;5269;51.146;16.986;2022-10-16T18:38:44;18.17;;;13.13;;
10442;SDS011;5269;51.146;16.986;2022-10-16T18:41:12;15.07;;;13.35;;
10442;SDS011;5269;51.146;16.986;2022-10-16T18:43:39;15.15;;;12.80;;
10442;SDS011;5269;51.146;16.986;2022-10-16T18:46:06;15.00;;;12.95;;
10442;SDS011;5269;51.146;16.986;2022-10-16T18:48:36;13.80;;;12.30;;
10442;SDS011;5269;51.146;16.986;2022-10-16T18:51:06;16.60;;;13.48;;
10442;SDS011;5269;51.146;16.986;2022-10-16T18:53:34;17.73;;;13.55;;
10442;SDS011;5269;51.146;16.986;2022-10-16T18:56:02;18.08;;;14.27;;
10442;SDS011;5269;51.146;16.986;2022-10-16T18:58:31;18.42;;;14.70;;
10442;SDS011;5269;51.146;16.986;2022-10-16T19:01:01;18.10;;;14.90;;
10442;SDS011;5269;51.146;16.986;2022-10-16T19:03:29;16.40;;;14.60;;
10442;SDS011;5269;51.146;16.986;2022-10-16T19:05:58;19.80;;;14.15;;
10442;SDS011;5269;51.146;16.986;2022-10-16T19:08:26;18.63;;;14.38;;
10442;SDS011;5269;51.146;16.986;2022-10-16T19:10:53;19.45;;;15.73;;
10442;SDS011;5269;51.146;16.986;2022-10-16T19:13:20;19.40;;;15.30;;
10442;SDS011;5269;51.146;16.986;2022-10-16T19:15:49;20.92;;;15.63;;
10442;SDS011;5269;51.146;16.986;2022-10-16T19:18:15;18.95;;;15.10;;
10442;SDS011;5269;51.146;16.986;2022-10-16T19:20:43;18.98;;;15.63;;
10442;SDS011;5269;51.146;16.986;2022-10-16T19:23:10;20.58;;;15.80;;
10442;SDS011;5269;51.146;16.986;2022-10-16T19:25:36;19.33;;;15.63;;
10442;SDS011;5269;51.146;16.986;2022-10-16T19:28:05;17.30;;;15.43;;
10442;SDS011;5269;51.146;16.986;2022-10-16T19:30:34;21.27;;;15.45;;
10442;SDS011;5269;51.146;16.986;2022-10-16T19:33:03;19.88;;;16.52;;
10442;SDS011;5269;51.146;16.986;2022-10-16T19:35:30;21.30;;;15.80;;
10442;SDS011;5269;51.146;16.986;2022-10-16T19:37:58;20.10;;;15.80;;
10442;SDS011;5269;51.146;16.986;2022-10-16T19:40:25;19.90;;;15.48;;
10442;SDS011;5269;51.146;16.986;2022-10-16T19:42:58;18.98;;;16.05;;
10442;SDS011;5269;51.146;16.986;2022-10-16T19:45:25;18.25;;;16.35;;
10442;SDS011;5269;51.146;16.986;2022-10-16T19:47:54;22.80;;;17.45;;
10442;SDS011;5269;51.146;16.986;2022-10-16T19:50:22;20.55;;;16.73;;
10442;SDS011;5269;51.146;16.986;2022-10-16T19:52:49;19.67;;;16.52;;
10442;SDS011;5269;51.146;16.986;2022-10-16T19:55:16;19.42;;;16.73;;
10442;SDS011;5269;51.146;16.986;2022-10-16T19:57:43;20.65;;;16.70;;
10442;SDS011;5269;51.146;16.986;2022-10-16T20:00:10;18.83;;;16.42;;
10442;SDS011;5269;51.146;16.986;2022-10-16T20:02:38;21.15;;;16.88;;
10442;SDS011;5269;51.146;16.986;2022-10-16T20:05:05;18.73;;;15.48;;
10442;SDS011;5269;51.146;16.986;2022-10-16T20:07:34;18.35;;;15.55;;
10442;SDS011;5269;51.146;16.986;2022-10-16T20:10:00;17.45;;;15.43;;
10442;SDS011;5269;51.146;16.986;2022-10-16T20:12:27;17.88;;;14.77;;
10442;SDS011;5269;51.146;16.986;2022-10-16T20:14:54;16.65;;;14.85;;
10442;SDS011;5269;51.146;16.986;2022-10-16T20:17:21;18.98;;;15.25;;
10442;SDS011;5269;51.146;16.986;2022-10-16T20:19:48;20.63;;;14.43;;
10442;SDS011;5269;51.146;16.986;2022-10-16T20:22:15;19.92;;;14.68;;
10442;SDS011;5269;51.146;16.986;2022-10-16T20:24:43;20.08;;;15.13;;
10442;SDS011;5269;51.146;16.986;2022-10-16T20:27:10;21.77;;;17.42;;
10442;SDS011;5269;51.146;16.986;2022-10-16T20:29:37;20.92;;;16.17;;
10442;SDS011;5269;51.146;16.986;2022-10-16T20:32:04;19.58;;;16.42;;
10442;SDS011;5269;51.146;16.986;2022-10-16T20:34:31;20.90;;;17.20;;
10442;SDS011;5269;51.146;16.986;2022-10-16T20:36:57;21.40;;;17.02;;
10442;SDS011;5269;51.146;16.986;2022-10-16T20:39:24;20.13;;;16.25;;
10442;SDS011;5269;51.146;16.986;2022-10-16T20:41:52;20.60;;;16.58;;
10442;SDS011;5269;51.146;16.986;2022-10-16T20:44:19;18.48;;;16.25;;
10442;SDS011;5269;51.146;16.986;2022-10-16T20:46:46;20.25;;;16.38;;
10442;SDS011;5269;51.146;16.986;2022-10-16T20:49:13;18.30;;;15.57;;
10442;SDS011;5269;51.146;16.986;2022-10-16T20:51:40;19.52;;;16.38;;
10442;SDS011;5269;51.146;16.986;2022-10-16T20:54:09;24.27;;;17.50;;
10442;SDS011;5269;51.146;16.986;2022-10-16T20:56:37;20.55;;;15.73;;
10442;SDS011;5269;51.146;16.986;2022-10-16T20:59:06;20.13;;;16.42;;
10442;SDS011;5269;51.146;16.986;2022-10-16T21:01:33;19.33;;;16.33;;
10442;SDS011;5269;51.146;16.986;2022-10-16T21:04:02;21.42;;;17.20;;
10442;SDS011;5269;51.146;16.986;2022-10-16T21:06:31;20.38;;;17.10;;
10442;SDS011;5269;51.146;16.986;2022-10-16T21:08:59;19.83;;;17.00;;
10442;SDS011;5269;51.146;16.986;2022-10-16T21:11:27;22.00;;;16.65;;
10442;SDS011;5269;51.146;16.986;2022-10-16T21:13:56;19.00;;;16.52;;
10442;SDS011;5269;51.146;16.986;2022-10-16T21:16:26;21.05;;;16.75;;
10442;SDS011;5269;51.146;16.986;2022-10-16T21:18:54;20.25;;;16.55;;
10442;SDS011;5269;51.146;16.986;2022-10-16T21:21:23;20.85;;;17.20;;
10442;SDS011;5269;51.146;16.986;2022-10-16T21:23:51;20.83;;;17.23;;
10442;SDS011;5269;51.146;16.986;2022-10-16T21:26:19;20.88;;;18.52;;
10442;SDS011;5269;51.146;16.986;2022-10-16T21:28:50;20.88;;;18.02;;
10442;SDS011;5269;51.146;16.986;2022-10-16T21:31:18;19.52;;;16.67;;
10442;SDS011;5269;51.146;16.986;2022-10-16T21:33:48;21.30;;;17.38;;
10442;SDS011;5269;51.146;16.986;2022-10-16T21:36:16;19.88;;;17.05;;
10442;SDS011;5269;51.146;16.986;2022-10-16T21:38:44;22.48;;;17.88;;
10442;SDS011;5269;51.146;16.986;2022-10-16T21:41:13;22.05;;;18.23;;
10442;SDS011;5269;51.146;16.986;2022-10-16T21:43:41;27.25;;;18.85;;
10442;SDS011;5269;51.146;16.986;2022-10-16T21:46:08;21.73;;;17.63;;
10442;SDS011;5269;51.146;16.986;2022-10-16T21:48:35;22.92;;;17.63;;
10442;SDS011;5269;51.146;16.986;2022-10-16T21:51:04;20.73;;;17.98;;
10442;SDS011;5269;51.146;16.986;2022-10-16T21:53:31;24.30;;;18.30;;
10442;SDS011;5269;51.146;16.986;2022-10-16T21:55:58;20.58;;;18.08;;
10442;SDS011;5269;51.146;16.986;2022-10-16T21:58:25;23.08;;;19.05;;
10442;SDS011;5269;51.146;16.986;2022-10-16T22:00:52;25.00;;;19.25;;
10442;SDS011;5269;51.146;16.986;2022-10-16T22:03:19;23.88;;;18.83;;
10442;SDS011;5269;51.146;16.986;2022-10-16T22:05:46;24.73;;;18.95;;
10442;SDS011;5269;51.146;16.986;2022-10-16T22:08:14;27.42;;;19.98;;
10442;SDS011;5269;51.146;16.986;2022-10-16T22:10:41;27.50;;;19.13;;
10442;SDS011;5269;51.146;16.986;2022-10-16T22:13:08;22.58;;;18.10;;
10442;SDS011;5269;51.146;16.986;2022-10-16T22:15:34;23.60;;;17.63;;
10442;SDS011;5269;51.146;16.986;2022-10-16T22:18:01;21.13;;;17.25;;
10442;SDS011;5269;51.146;16.986;2022-10-16T22:20:28;21.55;;;17.20;;
10442;SDS011;5269;51.146;16.986;2022-10-16T22:22:55;18.00;;;15.50;;
10442;SDS011;5269;51.146;16.986;2022-10-16T22:25:23;17.98;;;15.10;;
10442;SDS011;5269;51.146;16.986;2022-10-16T22:27:50;17.73;;;14.90;;
10442;SDS011;5269;51.146;16.986;2022-10-16T22:30:17;16.98;;;14.35;;
10442;SDS011;5269;51.146;16.986;2022-10-16T22:32:44;17.38;;;14.43;;
10442;SDS011;5269;51.146;16.986;2022-10-16T22:35:11;19.10;;;15.25;;
10442;SDS011;5269;51.146;16.986;2022-10-16T22:37:37;19.45;;;16.48;;
10442;SDS011;5269;51.146;16.986;2022-10-16T22:40:05;21.08;;;16.73;;
10442;SDS011;5269;51.146;16.986;2022-10-16T22:42:34;20.77;;;15.50;;
10442;SDS011;5269;51.146;16.986;2022-10-16T22:45:01;18.70;;;14.82;;
10442;SDS011;5269;51.146;16.986;2022-10-16T22:47:28;19.92;;;15.52;;
10442;SDS011;5269;51.146;16.986;2022-10-16T22:49:54;18.77;;;15.88;;
10442;SDS011;5269;51.146;16.986;2022-10-16T22:52:21;19.20;;;16.33;;
10442;SDS011;5269;51.146;16.986;2022-10-16T22:54:48;19.10;;;16.13;;
10442;SDS011;5269;51.146;16.986;2022-10-16T22:57:15;19.25;;;15.60;;
10442;SDS011;5269;51.146;16.986;2022-10-16T22:59:43;22.25;;;15.98;;
10442;SDS011;5269;51.146;16.986;2022-10-16T23:02:12;21.98;;;16.60;;
10442;SDS011;5269;51.146;16.986;2022-10-16T23:04:38;20.73;;;17.25;;
10442;SDS011;5269;51.146;16.986;2022-10-16T23:07:05;21.23;;;17.67;;
10442;SDS011;5269;51.146;16.986;2022-10-16T23:09:32;20.90;;;17.05;;
10442;SDS011;5269;51.146;16.986;2022-10-16T23:11:59;20.80;;;17.02;;
10442;SDS011;5269;51.146;16.986;2022-10-16T23:14:26;18.67;;;15.93;;
10442;SDS011;5269;51.146;16.986;2022-10-16T23:16:54;25.33;;;19.10;;
10442;SDS011;5269;51.146;16.986;2022-10-16T23:19:21;22.35;;;18.55;;
10442;SDS011;5269;51.146;16.986;2022-10-16T23:21:48;24.52;;;19.52;;
10442;SDS011;5269;51.146;16.986;2022-10-16T23:24:15;24.70;;;19.58;;
10442;SDS011;5269;51.146;16.986;2022-10-16T23:26:42;31.67;;;23.27;;
10442;SDS011;5269;51.146;16.986;2022-10-16T23:29:08;27.33;;;21.83;;
10442;SDS011;5269;51.146;16.986;2022-10-16T23:31:35;26.88;;;20.48;;
10442;SDS011;5269;51.146;16.986;2022-10-16T23:34:04;26.88;;;21.63;;
10442;SDS011;5269;51.146;16.986;2022-10-16T23:36:30;26.08;;;21.30;;
10442;SDS011;5269;51.146;16.986;2022-10-16T23:38:57;26.60;;;20.35;;
10442;SDS011;5269;51.146;16.986;2022-10-16T23:41:24;28.50;;;21.30;;
10442;SDS011;5269;51.146;16.986;2022-10-16T23:43:51;24.10;;;19.45;;
10442;SDS011;5269;51.146;16.986;2022-10-16T23:46:18;23.58;;;18.80;;
10442;SDS011;5269;51.146;16.986;2022-10-16T23:48:45;23.98;;;19.55;;
10442;SDS011;5269;51.146;16.986;2022-10-16T23:51:13;23.50;;;17.92;;
10442;SDS011;5269;51.146;16.986;2022-10-16T23:53:40;22.88;;;18.35;;
10442;SDS011;5269;51.146;16.986;2022-10-16T23:56:07;23.15;;;18.30;;
10442;SDS011;5269;51.146;16.986;2022-10-16T23:58:35;25.48;;;18.13;;
